Time;durP1;ratioP1;P1;durP2;ratioP2;P2;SDS_P1;SDS_P2;PMS_P1;PMS_P2;Temp;Humidity;BMP_temperature;BMP_pressure;BME280_temperature;BME280_humidity;BME280_pressure;Samples;Min_cycle;Max_cycle;Signal;HPM_P1;HPM_P2
2023/05/18 00:01:16;;;;;;;5.73;1.97;;;7.80;99.90;;;;;;10402083;28;20217;-76
2023/05/18 00:07:02;;;;;;;4.67;2.23;;;7.70;99.90;;;;;;10440101;28;20217;-75
2023/05/18 00:12:23;;;;;;;2.87;1.40;;;7.70;99.90;;;;;;10441833;28;20209;-76
2023/05/18 00:17:44;;;;;;;8.67;2.07;;;7.70;99.90;;;;;;10438812;28;20598;-76
2023/05/18 00:23:09;;;;;;;5.83;2.20;;;7.60;99.90;;;;;;10402297;28;20223;-76
2023/05/18 00:28:31;;;;;;;4.70;1.93;;;7.60;99.90;;;;;;10417449;28;20208;-76
2023/05/18 00:33:52;;;;;;;5.27;2.20;;;7.50;99.90;;;;;;10403607;28;20504;-76
2023/05/18 00:39:12;;;;;;;5.63;1.93;;;7.50;99.90;;;;;;10413678;28;20224;-76
2023/05/18 00:44:34;;;;;;;5.90;1.83;;;7.40;99.90;;;;;;10404307;28;20230;-76
2023/05/18 00:49:55;;;;;;;5.70;2.13;;;7.30;99.90;;;;;;10416986;28;20205;-75
2023/05/18 00:55:16;;;;;;;6.13;2.53;;;7.30;99.90;;;;;;10400245;28;20273;-76
2023/05/18 01:00:38;;;;;;;4.70;2.47;;;7.30;99.90;;;;;;10400015;28;20226;-76
2023/05/18 01:05:59;;;;;;;6.30;2.03;;;7.20;99.90;;;;;;10416086;28;20517;-76
2023/05/18 01:11:54;;;;;;;6.77;2.73;;;7.20;99.90;;;;;;10412844;28;20189;-76
2023/05/18 01:17:48;;;;;;;8.73;2.93;;;7.10;99.90;;;;;;10408747;28;20209;-75
2023/05/18 01:23:34;;;;;;;8.00;2.37;;;7.10;99.90;;;;;;10400757;28;20390;-76
2023/05/18 01:28:57;;;;;;;4.43;2.10;;;7.10;99.90;;;;;;10422226;28;20205;-75
2023/05/18 01:34:18;;;;;;;4.47;2.30;;;7.00;99.90;;;;;;10420115;28;20204;-76
2023/05/18 01:39:41;;;;;;;5.60;2.00;;;7.00;99.90;;;;;;10405245;28;20565;-76
2023/05/18 01:45:08;;;;;;;4.40;2.17;;;6.90;99.90;;;;;;10435688;28;20199;-76
2023/05/18 01:50:38;;;;;;;5.93;1.80;;;6.90;99.90;;;;;;10433783;28;20378;-75
2023/05/18 01:56:02;;;;;;;6.80;2.17;;;6.90;99.90;;;;;;10435005;28;20222;-76
2023/05/18 02:01:24;;;;;;;5.07;1.87;;;6.80;99.90;;;;;;10421067;28;20231;-76
2023/05/18 02:06:45;;;;;;;5.20;2.30;;;6.90;99.90;;;;;;10385603;28;20239;-75
2023/05/18 02:12:07;;;;;;;4.37;2.13;;;6.80;99.90;;;;;;10410188;28;20277;-76
2023/05/18 02:17:28;;;;;;;5.90;1.90;;;6.80;99.90;;;;;;10420756;28;20299;-76
2023/05/18 02:22:49;;;;;;;9.27;3.37;;;6.80;99.90;;;;;;10422940;28;20430;-76
2023/05/18 02:28:10;;;;;;;9.10;3.53;;;6.70;99.90;;;;;;10409542;28;20204;-76
2023/05/18 02:33:35;;;;;;;8.60;3.60;;;6.70;99.90;;;;;;10405028;28;20197;-76
2023/05/18 02:38:56;;;;;;;8.30;2.97;;;6.60;99.90;;;;;;10433189;28;20229;-76
2023/05/18 02:44:17;;;;;;;7.57;2.33;;;6.60;99.90;;;;;;10437098;28;20191;-76
2023/05/18 02:49:38;;;;;;;5.73;2.27;;;6.60;99.90;;;;;;10429189;28;20417;-76
2023/05/18 02:54:59;;;;;;;6.47;1.97;;;6.60;99.90;;;;;;10435751;28;20228;-76
2023/05/18 03:00:40;;;;;;;4.77;1.63;;;6.60;99.90;;;;;;10435448;28;20555;-76
2023/05/18 03:06:02;;;;;;;5.40;1.73;;;6.60;99.90;;;;;;10423516;28;20203;-75
2023/05/18 03:11:23;;;;;;;4.70;1.73;;;6.70;99.90;;;;;;10408626;28;20242;-76
2023/05/18 03:16:45;;;;;;;5.43;2.00;;;6.60;99.90;;;;;;10401261;28;20194;-75
2023/05/18 03:22:08;;;;;;;5.07;2.37;;;6.50;99.90;;;;;;10420852;28;20207;-76
2023/05/18 03:27:31;;;;;;;7.03;3.00;;;6.50;99.90;;;;;;10453611;28;20210;-75
2023/05/18 03:32:53;;;;;;;7.33;3.77;;;6.60;99.90;;;;;;10440716;28;20193;-75
2023/05/18 03:38:14;;;;;;;7.97;3.33;;;6.60;99.90;;;;;;10462023;28;20223;-76
2023/05/18 03:43:40;;;;;;;6.47;2.80;;;6.70;99.90;;;;;;10455201;28;20489;-76
2023/05/18 03:49:03;;;;;;;8.37;3.00;;;6.80;99.90;;;;;;10475866;28;20194;-76
2023/05/18 03:54:31;;;;;;;7.00;3.03;;;6.70;99.90;;;;;;10475510;28;20241;-76
2023/05/18 03:59:53;;;;;;;5.30;2.97;;;6.70;99.90;;;;;;10447223;28;20232;-76
2023/05/18 04:05:14;;;;;;;6.43;2.60;;;6.70;99.90;;;;;;10488585;28;20190;-76
2023/05/18 04:10:35;;;;;;;4.50;2.03;;;6.70;99.90;;;;;;10489678;28;20201;-76
2023/05/18 04:15:57;;;;;;;5.00;2.33;;;6.80;99.90;;;;;;10404076;28;20362;-76
2023/05/18 04:21:18;;;;;;;4.97;2.03;;;6.90;99.90;;;;;;10414464;28;20224;-76
2023/05/18 04:26:41;;;;;;;5.30;2.10;;;6.90;99.90;;;;;;10430964;28;20195;-76
2023/05/18 04:32:06;;;;;;;5.53;1.73;;;7.00;99.90;;;;;;10441072;28;20555;-76
2023/05/18 04:37:28;;;;;;;5.10;2.50;;;7.10;99.90;;;;;;10426226;28;20297;-76
2023/05/18 04:42:49;;;;;;;5.67;2.17;;;7.20;99.90;;;;;;10423855;28;20380;-76
2023/05/18 04:48:16;;;;;;;6.27;1.97;;;7.20;99.90;;;;;;10413423;28;20275;-75
2023/05/18 04:53:39;;;;;;;6.73;2.43;;;7.30;99.90;;;;;;10385281;28;20195;-76
2023/05/18 04:59:01;;;;;;;7.83;2.30;;;7.40;99.90;;;;;;10425926;28;20528;-77
2023/05/18 05:04:23;;;;;;;4.83;1.97;;;7.50;99.90;;;;;;10481177;28;20542;-75
2023/05/18 05:09:44;;;;;;;4.90;2.50;;;7.60;99.90;;;;;;10480559;28;20193;-75
2023/05/18 05:15:06;;;;;;;4.47;2.00;;;7.80;99.90;;;;;;10401916;28;20206;-76
2023/05/18 05:20:27;;;;;;;6.90;2.70;;;8.10;99.90;;;;;;10434339;28;20223;-76
2023/05/18 05:25:49;;;;;;;5.37;2.93;;;8.20;99.90;;;;;;10438135;28;20204;-76
2023/05/18 05:31:10;;;;;;;4.97;2.20;;;8.50;99.90;;;;;;10437748;28;20514;-75
2023/05/18 05:36:32;;;;;;;5.03;2.53;;;8.80;99.90;;;;;;10420808;28;20252;-76
2023/05/18 05:41:54;;;;;;;3.07;1.80;;;9.00;99.90;;;;;;10410655;28;20232;-75
2023/05/18 05:47:15;;;;;;;3.37;1.83;;;9.20;99.90;;;;;;10414181;28;20398;-76
2023/05/18 05:52:38;;;;;;;4.77;1.93;;;9.40;99.90;;;;;;10396904;28;20203;-76
2023/05/18 05:57:59;;;;;;;7.10;2.07;;;9.70;99.90;;;;;;10396880;28;20266;-76
2023/05/18 06:03:21;;;;;;;4.57;1.63;;;9.80;99.90;;;;;;10410227;28;20206;-76
2023/05/18 06:08:43;;;;;;;4.47;2.07;;;10.00;99.60;;;;;;10395925;28;20252;-76
2023/05/18 06:14:04;;;;;;;2.63;1.77;;;10.20;99.10;;;;;;10399075;28;20291;-76
2023/05/18 06:19:27;;;;;;;3.90;2.27;;;10.70;98.00;;;;;;10437786;28;20238;-76
2023/05/18 06:24:48;;;;;;;6.13;1.70;;;11.00;95.20;;;;;;10435197;28;20204;-76
2023/05/18 06:30:38;;;;;;;3.63;1.97;;;11.40;92.80;;;;;;10419296;28;20207;-75
2023/05/18 06:36:15;;;;;;;6.57;1.70;;;12.00;86.20;;;;;;10424011;28;20198;-77
2023/05/18 06:41:36;;;;;;;4.00;2.10;;;12.80;56.30;;;;;;10421039;28;20229;-76
2023/05/18 06:46:59;;;;;;;4.35;1.90;;;13.60;42.40;;;;;;10433761;28;20218;-75
2023/05/18 06:52:22;;;;;;;4.82;2.42;;;14.30;32.00;;;;;;10435280;28;20376;-76
2023/05/18 06:57:44;;;;;;;4.30;2.10;;;15.10;27.50;;;;;;10434933;28;20568;-76
2023/05/18 07:03:05;;;;;;;8.60;3.85;;;15.30;23.30;;;;;;10404383;28;20283;-77
2023/05/18 07:08:27;;;;;;;7.90;4.30;;;15.70;22.00;;;;;;10410125;28;20204;-76
2023/05/18 07:13:48;;;;;;;7.72;2.47;;;16.10;19.60;;;;;;10395442;28;20186;-76
2023/05/18 07:19:10;;;;;;;3.72;1.77;;;16.60;18.90;;;;;;10418404;28;20227;-79
2023/05/18 07:24:31;;;;;;;5.53;2.30;;;16.80;17.80;;;;;;10416272;28;20258;-76
2023/05/18 07:29:52;;;;;;;3.97;1.48;;;17.40;15.80;;;;;;10393073;28;20296;-79
2023/05/18 07:35:15;;;;;;;2.67;1.80;;;17.50;14.20;;;;;;10409938;28;20499;-77
2023/05/18 07:40:37;;;;;;;3.88;1.27;;;17.60;12.70;;;;;;10436204;28;20240;-79
2023/05/18 07:45:58;;;;;;;2.97;1.10;;;17.50;13.00;;;;;;10417946;28;20205;-79
2023/05/18 07:51:19;;;;;;;3.05;0.93;;;17.70;12.40;;;;;;10396365;28;20220;-78
2023/05/18 07:56:40;;;;;;;1.95;1.02;;;18.00;11.00;;;;;;10396135;28;20221;-78
2023/05/18 08:02:02;;;;;;;1.02;0.65;;;18.50;9.20;;;;;;10403175;28;20225;-81
2023/05/18 08:07:25;;;;;;;1.13;1.02;;;18.90;8.50;;;;;;10378054;28;20216;-78
2023/05/18 08:12:46;;;;;;;12.95;6.15;;;19.00;7.60;;;;;;10407993;28;20282;-82
2023/05/18 08:18:07;;;;;;;5.70;2.95;;;19.80;12.90;;;;;;10412406;28;20224;-79
2023/05/18 08:23:29;;;;;;;1.63;1.00;;;20.00;7.00;;;;;;10391985;28;20238;-79
2023/05/18 08:28:50;;;;;;;1.13;0.70;;;20.00;6.30;;;;;;10405685;28;20180;-77
2023/05/18 08:34:11;;;;;;;1.02;0.70;;;20.20;5.80;;;;;;10439829;28;20196;-78
2023/05/18 08:39:32;;;;;;;4.57;0.90;;;20.40;5.10;;;;;;10434786;28;20236;-77
2023/05/18 08:45:02;;;;;;;1.75;0.68;;;20.60;4.40;;;;;;10403023;28;20487;-79
2023/05/18 08:50:25;;;;;;;2.10;1.30;;;19.80;5.30;;;;;;10394575;28;20212;-80
2023/05/18 08:55:49;;;;;;;9.45;3.08;;;18.70;6.00;;;;;;10397445;28;20547;-77
2023/05/18 09:01:10;;;;;;;2.50;1.38;;;19.30;7.30;;;;;;10407399;28;20225;-78
2023/05/18 09:06:34;;;;;;;2.08;0.88;;;20.10;5.50;;;;;;10417902;28;20258;-81
2023/05/18 09:11:56;;;;;;;0.90;0.70;;;20.70;4.80;;;;;;10431807;28;20212;-81
2023/05/18 09:17:17;;;;;;;2.72;0.57;;;21.20;3.70;;;;;;10433969;28;20196;-79
2023/05/18 09:22:39;;;;;;;2.63;0.60;;;21.60;3.70;;;;;;10430919;28;20224;-78
2023/05/18 09:28:02;;;;;;;0.80;0.57;;;22.10;2.30;;;;;;10431026;28;20242;-77
2023/05/18 09:33:24;;;;;;;0.85;0.60;;;22.20;2.60;;;;;;10431230;28;20212;-80
2023/05/18 09:38:45;;;;;;;1.88;1.00;;;22.20;1.50;;;;;;10432787;28;20291;-77
2023/05/18 09:44:11;;;;;;;1.67;0.88;;;22.20;2.10;;;;;;10431345;28;20258;-77
2023/05/18 09:49:32;;;;;;;2.80;1.02;;;22.60;1.60;;;;;;10431873;28;20204;-78
2023/05/18 09:54:59;;;;;;;0.85;0.80;;;22.80;1.00;;;;;;10431434;28;20229;-77
2023/05/18 10:00:20;;;;;;;2.90;1.60;;;23.20;1.00;;;;;;10430275;28;20541;-78
2023/05/18 10:05:42;;;;;;;1.85;0.95;;;23.50;1.00;;;;;;10432130;28;20309;-76
2023/05/18 10:11:04;;;;;;;3.00;2.55;;;23.00;1.00;;;;;;10430104;28;20204;-77
2023/05/18 10:16:25;;;;;;;11.98;9.73;;;22.20;1.00;;;;;;10426028;28;20208;-78
2023/05/18 10:21:48;;;;;;;3.67;1.80;;;21.20;2.50;;;;;;10432532;28;20227;-78
2023/05/18 10:27:13;;;;;;;3.05;1.60;;;20.40;3.10;;;;;;10409894;28;20279;-78
2023/05/18 10:32:36;;;;;;;1.45;0.80;;;;;;;;;;10424541;28;20189;-79
2023/05/18 10:37:58;;;;;;;3.47;1.10;;;22.50;17.50;;;;;;10426384;28;20295;-79
2023/05/18 10:43:25;;;;;;;2.45;0.70;;;22.70;15.00;;;;;;10431300;28;20393;-78
2023/05/18 10:48:50;;;;;;;2.30;0.70;;;23.10;1.00;;;;;;10419759;28;20398;-76
2023/05/18 10:54:13;;;;;;;2.72;1.10;;;23.20;1.00;;;;;;10426663;28;20256;-79
2023/05/18 10:59:38;;;;;;;0.73;0.73;;;23.20;1.00;;;;;;10412677;28;20373;-77
2023/05/18 11:05:04;;;;;;;1.85;0.88;;;23.00;1.00;;;;;;10400764;28;20223;-79
2023/05/18 11:10:33;;;;;;;0.90;0.80;;;23.10;1.00;;;;;;10408746;28;20224;-79
2023/05/18 11:15:55;;;;;;;1.88;0.80;;;23.50;1.00;;;;;;10388057;28;20235;-76
2023/05/18 11:21:34;;;;;;;1.13;0.88;;;23.30;1.00;;;;;;10412114;28;20212;-81
2023/05/18 11:27:15;;;;;;;1.52;0.95;;;23.50;1.00;;;;;;10407483;28;20223;-83
2023/05/18 11:32:37;;;;;;;4.82;2.47;;;23.90;1.00;;;;;;10429222;28;20200;-78
2023/05/18 11:38:06;;;;;;;3.25;1.85;;;24.00;1.00;;;;;;10417309;28;20513;-76
2023/05/18 11:43:28;;;;;;;5.35;2.83;;;23.70;1.00;;;;;;10421194;28;20429;-77
2023/05/18 11:48:50;;;;;;;10.90;2.53;;;23.10;1.00;;;;;;10430272;28;20214;-77
2023/05/18 11:54:11;;;;;;;5.88;1.02;;;23.00;1.00;;;;;;10428039;28;20212;-76
2023/05/18 11:59:40;;;;;;;5.47;1.25;;;22.70;1.00;;;;;;10428394;28;20220;-76
2023/05/18 12:05:07;;;;;;;2.70;0.90;;;22.00;9.40;;;;;;10428848;28;20383;-76
2023/05/18 12:10:28;;;;;;;1.70;0.80;;;21.60;1.00;;;;;;10408654;28;20213;-80
2023/05/18 12:15:51;;;;;;;4.93;1.20;;;21.80;6.80;;;;;;10420704;28;20196;-82
2023/05/18 12:21:13;;;;;;;4.20;1.48;;;22.10;1.00;;;;;;10433344;28;20282;-79
2023/05/18 12:26:34;;;;;;;7.50;1.55;;;22.30;1.00;;;;;;10436008;28;20205;-81
2023/05/18 12:31:55;;;;;;;9.02;5.20;;;22.60;1.00;;;;;;10435899;28;20477;-80
2023/05/18 12:37:16;;;;;;;3.55;1.85;;;22.60;1.00;;;;;;10437325;28;20664;-83
2023/05/18 12:42:37;;;;;;;3.05;1.08;;;22.80;1.00;;;;;;10420170;28;20228;-82
2023/05/18 12:48:06;;;;;;;6.03;1.98;;;22.90;1.00;;;;;;10429307;28;20583;-81
2023/05/18 12:53:42;;;;;;;9.60;5.90;;;22.90;1.00;;;;;;10434718;28;20204;-79
2023/05/18 12:59:05;;;;;;;12.27;7.97;;;22.30;1.00;;;;;;10425590;28;20248;-79
2023/05/18 13:04:36;;;;;;;4.18;2.78;;;21.70;1.00;;;;;;10402387;28;20218;-79
2023/05/18 13:10:04;;;;;;;4.63;1.20;;;21.60;1.00;;;;;;10426242;28;20219;-78
2023/05/18 13:15:25;;;;;;;1.80;1.02;;;21.10;14.80;;;;;;10434519;28;20211;-85
2023/05/18 13:20:51;;;;;;;4.15;1.75;;;20.70;1.90;;;;;;10405726;28;20227;-83
2023/05/18 13:26:12;;;;;;;2.65;1.30;;;21.00;1.50;;;;;;10420728;28;20404;-85
2023/05/18 13:31:33;;;;;;;2.80;1.20;;;21.60;19.70;;;;;;10433253;28;20200;-78
2023/05/18 13:36:54;;;;;;;8.40;2.97;;;21.80;19.40;;;;;;10415551;28;20200;-80
2023/05/18 13:42:19;;;;;;;3.15;1.50;;;21.50;18.40;;;;;;10429813;28;20228;-78
2023/05/18 13:47:42;;;;;;;2.60;1.48;;;21.00;12.40;;;;;;10431401;28;20185;-79
2023/05/18 13:53:03;;;;;;;1.55;1.05;;;20.50;1.70;;;;;;10431717;28;20395;-79
2023/05/18 13:58:24;;;;;;;2.03;1.00;;;20.30;2.00;;;;;;10431266;28;20298;-77
2023/05/18 14:03:45;;;;;;;2.95;1.58;;;20.20;10.60;;;;;;10431419;28;20200;-77
2023/05/18 14:09:06;;;;;;;2.15;1.15;;;19.90;2.20;;;;;;10395454;28;20442;-76
2023/05/18 14:14:27;;;;;;;4.60;1.30;;;19.90;2.10;;;;;;10450766;28;20262;-79
2023/05/18 14:19:49;;;;;;;5.50;2.28;;;20.00;2.20;;;;;;10470641;28;20522;-77
2023/05/18 14:25:10;;;;;;;3.55;1.20;;;20.00;2.20;;;;;;10468737;28;20463;-78
2023/05/18 14:30:31;;;;;;;3.38;0.82;;;20.30;1.70;;;;;;10466996;28;20208;-77
2023/05/18 14:35:54;;;;;;;3.58;1.40;;;20.10;1.70;;;;;;10456905;28;20208;-78
2023/05/18 14:41:15;;;;;;;1.05;0.70;;;20.10;1.90;;;;;;10472185;28;20219;-77
2023/05/18 14:46:36;;;;;;;12.90;9.13;;;19.90;1.50;;;;;;10470360;28;20199;-79
2023/05/18 14:51:57;;;;;;;4.32;3.15;;;19.60;2.20;;;;;;10457106;28;20208;-79
2023/05/18 14:57:19;;;;;;;3.00;1.00;;;19.50;1.80;;;;;;10469054;28;20553;-77
2023/05/18 15:02:41;;;;;;;0.77;0.70;;;19.50;1.90;;;;;;10468331;28;20250;-77
2023/05/18 15:08:02;;;;;;;2.05;1.00;;;19.30;1.40;;;;;;10454746;28;20231;-78
2023/05/18 15:13:23;;;;;;;3.85;1.25;;;19.20;1.60;;;;;;10449946;28;20426;-77
2023/05/18 15:18:45;;;;;;;1.77;1.05;;;18.80;1.80;;;;;;10460776;28;20418;-76
2023/05/18 15:24:06;;;;;;;1.98;1.13;;;18.70;1.90;;;;;;10434880;28;20201;-79
2023/05/18 15:29:27;;;;;;;2.05;1.00;;;18.70;1.40;;;;;;10457194;28;20203;-77
2023/05/18 15:34:50;;;;;;;7.43;1.20;;;18.70;1.00;;;;;;10468311;28;20196;-77
2023/05/18 15:40:11;;;;;;;6.75;1.73;;;18.30;1.00;;;;;;10418428;28;20227;-77
2023/05/18 15:45:32;;;;;;;2.78;1.63;;;18.30;1.00;;;;;;10434529;28;20192;-76
2023/05/18 15:50:53;;;;;;;4.93;1.27;;;18.30;1.20;;;;;;10450847;28;20230;-77
2023/05/18 15:56:14;;;;;;;1.75;1.02;;;18.30;1.00;;;;;;10481136;28;20219;-76
2023/05/18 16:01:35;;;;;;;1.75;0.90;;;18.20;1.00;;;;;;10484506;28;20211;-77
2023/05/18 16:06:56;;;;;;;3.58;1.55;;;18.00;1.00;;;;;;10452875;28;20200;-77
2023/05/18 16:12:17;;;;;;;3.05;0.90;;;17.90;1.00;;;;;;10465621;28;20203;-78
2023/05/18 16:17:38;;;;;;;1.35;0.95;;;17.70;1.00;;;;;;10482767;28;20250;-77
2023/05/18 16:22:59;;;;;;;1.58;0.80;;;17.70;1.30;;;;;;10479051;28;20253;-76
2023/05/18 16:28:20;;;;;;;1.92;0.90;;;17.60;1.90;;;;;;10482445;28;20275;-76
2023/05/18 16:33:42;;;;;;;1.88;0.95;;;17.60;2.90;;;;;;10468030;28;20200;-76
2023/05/18 16:39:03;;;;;;;2.97;1.52;;;17.30;2.60;;;;;;10445840;28;20220;-77
2023/05/18 16:44:24;;;;;;;1.67;0.90;;;17.20;3.20;;;;;;10441773;28;20192;-76
2023/05/18 16:49:45;;;;;;;3.42;1.70;;;17.10;3.50;;;;;;10441024;28;20226;-76
2023/05/18 16:55:06;;;;;;;3.70;1.30;;;17.10;11.10;;;;;;10441065;28;20224;-78
2023/05/18 17:00:27;;;;;;;3.60;1.35;;;16.80;4.00;;;;;;10441123;28;20224;-76
2023/05/18 17:05:48;;;;;;;3.15;1.00;;;16.60;4.20;;;;;;10442996;28;20204;-76
2023/05/18 17:11:09;;;;;;;2.35;1.00;;;16.50;14.30;;;;;;10454981;28;20252;-77
2023/05/18 17:16:33;;;;;;;3.03;0.98;;;;;;;;;;10480191;28;20204;-76
2023/05/18 17:21:55;;;;;;;2.95;1.40;;;;;;;;;;10455870;28;20253;-76
2023/05/18 17:27:16;;;;;;;3.92;1.80;;;;;;;;;;10460353;28;20450;-76
2023/05/18 17:32:40;;;;;;;2.75;1.52;;;16.10;5.00;;;;;;10480876;28;20431;-77
2023/05/18 17:38:01;;;;;;;4.65;2.65;;;16.00;5.60;;;;;;10443803;28;20370;-76
2023/05/18 17:43:22;;;;;;;2.33;1.10;;;15.90;5.50;;;;;;10438126;28;20231;-76
2023/05/18 17:48:43;;;;;;;2.75;1.20;;;15.60;6.00;;;;;;10413093;28;20796;-76
2023/05/18 17:54:04;;;;;;;7.03;2.78;;;15.40;5.30;;;;;;10492298;28;20198;-76
2023/05/18 17:59:25;;;;;;;1.98;1.60;;;15.40;5.60;;;;;;10464626;28;20229;-77
2023/05/18 18:04:47;;;;;;;1.65;1.10;;;15.30;5.80;;;;;;10474821;28;20282;-76
2023/05/18 18:10:09;;;;;;;2.25;1.70;;;15.20;5.70;;;;;;10448074;28;20208;-76
2023/05/18 18:15:30;;;;;;;3.90;2.00;;;15.00;6.30;;;;;;10478078;28;20202;-77
2023/05/18 18:20:51;;;;;;;4.53;2.58;;;14.80;6.90;;;;;;10478432;28;20220;-76
2023/05/18 18:26:12;;;;;;;2.97;2.00;;;14.80;7.60;;;;;;10457356;28;20247;-76
2023/05/18 18:31:33;;;;;;;9.93;3.72;;;14.60;8.30;;;;;;10478426;28;20265;-76
2023/05/18 18:36:54;;;;;;;19.15;6.45;;;14.40;8.60;;;;;;10477407;28;20380;-76
2023/05/18 18:42:15;;;;;;;15.32;5.03;;;14.30;9.20;;;;;;10436817;28;20222;-76
2023/05/18 18:47:39;;;;;;;26.45;8.52;;;14.20;9.70;;;;;;10437084;28;20236;-76
2023/05/18 18:53:00;;;;;;;23.50;11.55;;;14.00;10.30;;;;;;10440025;28;20209;-77
2023/05/18 18:58:23;;;;;;;15.35;8.52;;;13.90;10.70;;;;;;10451987;28;20226;-76
2023/05/18 19:03:44;;;;;;;11.82;7.90;;;13.80;11.40;;;;;;10449189;28;20237;-76
2023/05/18 19:09:06;;;;;;;12.25;8.55;;;13.60;12.20;;;;;;10439865;28;20238;-76
2023/05/18 19:14:27;;;;;;;9.40;5.70;;;13.60;12.40;;;;;;10470818;28;20201;-76
2023/05/18 19:19:48;;;;;;;3.65;2.63;;;13.40;12.40;;;;;;10477370;28;20287;-76
2023/05/18 19:25:09;;;;;;;3.72;2.70;;;13.30;12.80;;;;;;10451027;28;20195;-76
2023/05/18 19:30:30;;;;;;;4.32;2.70;;;13.00;13.30;;;;;;10482034;28;20202;-78
2023/05/18 19:35:53;;;;;;;4.93;1.92;;;12.90;13.80;;;;;;10485613;28;20207;-76
2023/05/18 19:41:14;;;;;;;3.20;1.80;;;12.80;14.10;;;;;;10465801;28;20229;-75
2023/05/18 19:46:38;;;;;;;3.58;2.45;;;12.60;14.50;;;;;;10444080;28;20218;-77
2023/05/18 19:51:59;;;;;;;3.40;2.40;;;12.60;14.70;;;;;;10442560;28;20574;-76
2023/05/18 19:57:20;;;;;;;7.28;2.00;;;12.50;15.00;;;;;;10446696;28;20277;-76
2023/05/18 20:02:41;;;;;;;3.28;1.98;;;12.40;15.30;;;;;;10442345;28;20212;-76
2023/05/18 20:08:03;;;;;;;4.55;3.08;;;12.30;15.80;;;;;;10464512;28;20454;-76
2023/05/18 20:13:24;;;;;;;5.03;3.03;;;12.20;16.00;;;;;;10483503;28;20246;-76
2023/05/18 20:18:46;;;;;;;5.45;2.55;;;12.10;16.50;;;;;;10483954;28;20188;-76
2023/05/18 20:24:07;;;;;;;7.38;4.35;;;12.00;17.00;;;;;;10476175;28;20233;-75
2023/05/18 20:29:28;;;;;;;10.85;6.68;;;11.90;17.20;;;;;;10482309;28;20242;-76
2023/05/18 20:34:49;;;;;;;8.13;5.00;;;11.80;17.20;;;;;;10482227;28;20485;-76
2023/05/18 20:40:12;;;;;;;11.48;5.45;;;11.80;17.60;;;;;;10456321;28;20522;-76
2023/05/18 20:45:35;;;;;;;11.98;6.43;;;;;;;;;;10441677;28;20192;-76
2023/05/18 20:50:56;;;;;;;10.57;5.13;;;;;;;;;;10441262;28;20192;-77
2023/05/18 20:56:17;;;;;;;7.97;4.15;;;11.80;17.40;;;;;;10468011;28;20228;-77
2023/05/18 21:01:39;;;;;;;7.50;3.65;;;11.70;20.40;;;;;;10481351;28;20514;-76
2023/05/18 21:07:01;;;;;;;6.18;3.33;;;;;;;;;;10480843;28;20262;-77
2023/05/18 21:12:22;;;;;;;7.22;3.60;;;;;;;;;;10474547;28;20497;-76
2023/05/18 21:17:43;;;;;;;8.48;4.07;;;;;;;;;;10481568;28;20207;-76
2023/05/18 21:28:25;;;;;;;4.18;3.08;;;;;;;;;;10469677;28;20205;-77
2023/05/18 21:33:47;;;;;;;6.78;2.67;;;;;;;;;;10464862;28;20215;-77
2023/05/18 21:39:08;;;;;;;4.37;2.07;;;;;;;;;;10439260;28;20192;-76
2023/05/18 21:44:29;;;;;;;4.55;2.40;;;;;;;;;;10442883;28;20211;-76
2023/05/18 21:49:51;;;;;;;5.47;2.53;;;;;;;;;;10439205;28;20389;-77
2023/05/18 21:55:12;;;;;;;5.10;2.33;;;;;;;;;;10467649;28;20254;-76
2023/05/18 22:00:35;;;;;;;3.28;1.85;;;;;;;;;;10480069;28;20219;-75
2023/05/18 22:11:17;;;;;;;2.70;2.03;;;;;;;;;;10452387;28;20243;-75
2023/05/18 22:16:38;;;;;;;3.47;1.77;;;;;;;;;;10471388;28;20202;-76
2023/05/18 22:22:00;;;;;;;4.27;2.50;;;;;;;;;;10479118;28;20238;-75
2023/05/18 22:33:00;;;;;;;2.87;2.00;;;;;;;;;;10476017;28;20199;-75
2023/05/18 22:38:22;;;;;;;3.13;2.00;;;;;;;;;;10437117;28;20248;-76
2023/05/18 22:43:43;;;;;;;3.37;1.90;;;;;;;;;;10440572;28;20293;-76
2023/05/18 22:49:05;;;;;;;6.23;3.33;;;;;;;;;;10436135;28;20205;-76
2023/05/18 22:54:27;;;;;;;9.20;2.80;;;;;;;;;;10445662;28;20537;-76
2023/05/18 22:59:48;;;;;;;6.77;3.50;;;;;;;;;;10446917;28;20334;-75
2023/05/18 23:05:10;;;;;;;4.73;2.80;;;;;;;;;;10445452;28;20284;-76
2023/05/18 23:10:32;;;;;;;4.07;2.57;;;;;;;;;;10445908;28;20448;-77
2023/05/18 23:15:54;;;;;;;3.20;1.80;;;;;;;;;;10458193;28;20206;-76
2023/05/18 23:21:16;;;;;;;3.20;1.83;;;;;;;;;;10436111;28;20301;-75
2023/05/18 23:26:40;;;;;;;2.73;1.60;;;;;;;;;;10461786;28;20205;-76
2023/05/18 23:32:02;;;;;;;3.07;1.70;;;;;;;;;;10477540;28;20195;-75
2023/05/18 23:37:24;;;;;;;2.30;1.30;;;10.20;1.00;;;;;;10446423;28;20432;-75
2023/05/18 23:42:46;;;;;;;3.27;1.37;;;10.20;30.10;;;;;;10435846;28;20564;-78
2023/05/18 23:48:07;;;;;;;1.07;0.87;;;10.10;99.90;;;;;;10439169;28;20207;-75
2023/05/18 23:53:29;;;;;;;2.53;1.30;;;10.00;99.90;;;;;;10437063;28;20189;-76
2023/05/18 23:58:50;;;;;;;1.73;1.27;;;10.00;99.90;;;;;;10434445;28;20274;-76
